Time;durP1;ratioP1;P1;durP2;ratioP2;P2;SDS_P1;SDS_P2;PMS_P1;PMS_P2;Temp;Humidity;BMP_temperature;BMP_pressure;BME280_temperature;BME280_humidity;BME280_pressure;Samples;Min_cycle;Max_cycle;Signal;HPM_P1;HPM_P2
2021/01/14 00:00:14;;;;;;;13.00;2.17;;;4.80;99.90;;;;;;4142986;28;20500;-70
2021/01/14 00:02:14;;;;;;;6.93;1.67;;;4.80;99.90;;;;;;4146304;28;20033;-70
2021/01/14 00:04:15;;;;;;;7.68;2.05;;;4.80;99.90;;;;;;4149652;28;20032;-70
2021/01/14 00:06:18;;;;;;;9.73;2.05;;;4.80;99.90;;;;;;4145291;28;20034;-70
2021/01/14 00:08:19;;;;;;;9.90;2.30;;;4.80;99.90;;;;;;4150256;28;20103;-69
2021/01/14 00:10:21;;;;;;;8.82;1.88;;;4.80;99.90;;;;;;4151153;28;20033;-70
2021/01/14 00:12:22;;;;;;;6.65;1.40;;;4.80;99.90;;;;;;4148240;28;20526;-70
2021/01/14 00:14:22;;;;;;;11.18;2.38;;;4.80;99.90;;;;;;4147298;28;20096;-70
2021/01/14 00:16:23;;;;;;;6.93;1.90;;;4.80;99.90;;;;;;4146024;28;20157;-70
2021/01/14 00:18:24;;;;;;;10.43;2.75;;;4.70;99.90;;;;;;4147086;28;20125;-70
2021/01/14 00:20:25;;;;;;;15.70;2.63;;;4.80;99.90;;;;;;4149128;28;20149;-70
2021/01/14 00:22:26;;;;;;;16.30;2.47;;;4.80;99.90;;;;;;4145487;28;20656;-70
2021/01/14 00:24:27;;;;;;;10.05;2.25;;;4.80;99.90;;;;;;4144472;28;20038;-70
2021/01/14 00:26:28;;;;;;;12.57;2.05;;;4.80;99.90;;;;;;4148365;28;20040;-70
2021/01/14 00:28:28;;;;;;;8.25;2.05;;;4.80;99.90;;;;;;4144476;28;20369;-70
2021/01/14 00:30:31;;;;;;;6.53;1.40;;;4.80;99.90;;;;;;4143823;28;20069;-70
2021/01/14 00:32:31;;;;;;;7.97;1.52;;;4.80;99.90;;;;;;4147607;28;20087;-70
2021/01/14 00:34:32;;;;;;;6.47;1.42;;;4.70;99.90;;;;;;4152981;28;20037;-70
2021/01/14 00:38:59;;;;;;;4.65;1.50;;;4.80;99.90;;;;;;4145764;28;20152;-70
2021/01/14 00:40:59;;;;;;;7.00;1.73;;;4.80;99.90;;;;;;4144212;28;20694;-70
2021/01/14 00:43:05;;;;;;;10.02;1.67;;;4.80;99.90;;;;;;4149946;28;20037;-70
2021/01/14 00:45:07;;;;;;;7.50;1.67;;;4.80;99.90;;;;;;4147063;28;20041;-70
2021/01/14 00:47:07;;;;;;;9.00;1.90;;;4.80;99.90;;;;;;4146356;28;20421;-70
2021/01/14 00:49:08;;;;;;;10.10;2.10;;;4.80;99.90;;;;;;4147997;28;20129;-70
2021/01/14 00:51:09;;;;;;;7.85;1.48;;;4.80;99.90;;;;;;4140903;28;20117;-70
2021/01/14 00:53:09;;;;;;;10.52;1.75;;;4.70;99.90;;;;;;4145547;28;20084;-70
2021/01/14 00:55:10;;;;;;;9.10;1.73;;;4.70;99.90;;;;;;4151799;28;20473;-70
2021/01/14 00:57:11;;;;;;;5.30;1.58;;;4.70;99.90;;;;;;4152521;28;20037;-70
2021/01/14 00:59:11;;;;;;;7.60;1.70;;;4.70;99.90;;;;;;4155437;28;20450;-70
2021/01/14 01:01:12;;;;;;;8.27;1.60;;;4.70;99.90;;;;;;4148452;28;20124;-70
2021/01/14 01:03:13;;;;;;;5.15;1.40;;;4.70;99.90;;;;;;4146155;28;20060;-70
2021/01/14 01:05:15;;;;;;;6.78;2.00;;;4.60;99.90;;;;;;4148519;28;20037;-70
2021/01/14 01:07:16;;;;;;;8.38;1.80;;;4.70;99.90;;;;;;4147416;28;20084;-70
2021/01/14 01:09:16;;;;;;;7.13;1.30;;;4.70;99.90;;;;;;4146899;28;20053;-70
2021/01/14 01:11:24;;;;;;;7.07;1.80;;;4.60;99.90;;;;;;4147521;28;20095;-70
2021/01/14 01:13:24;;;;;;;7.65;1.92;;;4.60;99.90;;;;;;4150512;28;20129;-70
2021/01/14 01:15:25;;;;;;;4.90;1.42;;;4.60;99.90;;;;;;4148651;28;20045;-70
2021/01/14 01:17:33;;;;;;;5.10;1.10;;;4.50;99.90;;;;;;4151455;28;20675;-70
2021/01/14 01:19:33;;;;;;;4.63;1.40;;;4.60;99.90;;;;;;4142265;28;20125;-70
2021/01/14 01:21:34;;;;;;;4.50;1.10;;;4.60;99.90;;;;;;4148193;28;21594;-70
2021/01/14 01:23:34;;;;;;;9.73;1.77;;;4.60;99.90;;;;;;4143891;28;20046;-70
2021/01/14 01:25:38;;;;;;;4.25;1.55;;;4.60;99.90;;;;;;4140193;28;20041;-70
2021/01/14 01:27:38;;;;;;;8.35;1.60;;;4.60;99.90;;;;;;4144202;28;20080;-70
2021/01/14 01:29:39;;;;;;;9.13;1.65;;;4.60;99.90;;;;;;4142809;28;20064;-70
2021/01/14 01:31:40;;;;;;;6.35;1.50;;;4.50;99.90;;;;;;4150163;28;20034;-70
2021/01/14 01:33:42;;;;;;;12.38;2.00;;;4.50;99.90;;;;;;4144219;28;20152;-70
2021/01/14 01:35:48;;;;;;;5.80;1.58;;;4.50;99.90;;;;;;4142077;28;20129;-69
2021/01/14 01:37:48;;;;;;;7.70;1.70;;;4.50;99.90;;;;;;4140312;28;20038;-70
2021/01/14 01:39:49;;;;;;;5.72;1.40;;;4.50;99.90;;;;;;4147425;28;20125;-70
2021/01/14 01:41:50;;;;;;;4.60;1.25;;;4.50;99.90;;;;;;4146032;28;20030;-70
2021/01/14 01:43:50;;;;;;;8.43;1.45;;;4.50;99.90;;;;;;4150372;28;20034;-70
2021/01/14 01:45:52;;;;;;;5.60;1.67;;;4.50;99.90;;;;;;4142462;28;20390;-70
2021/01/14 01:47:53;;;;;;;7.97;2.05;;;4.50;99.90;;;;;;4160389;28;20129;-70
2021/01/14 01:49:53;;;;;;;13.88;1.60;;;4.50;99.90;;;;;;4144097;28;20054;-70
2021/01/14 01:51:54;;;;;;;8.40;1.83;;;4.50;99.90;;;;;;4143533;28;20037;-69
2021/01/14 01:53:55;;;;;;;5.30;1.25;;;4.50;99.90;;;;;;4145560;28;20091;-70
2021/01/14 01:55:57;;;;;;;4.38;1.45;;;4.50;99.90;;;;;;4154565;28;20095;-69
2021/01/14 01:57:57;;;;;;;6.68;1.42;;;4.50;99.90;;;;;;4150047;28;20459;-70
2021/01/14 01:59:58;;;;;;;8.90;1.83;;;4.40;99.90;;;;;;4144789;28;20036;-70
2021/01/14 02:02:21;;;;;;;6.95;1.55;;;4.40;99.90;;;;;;4143731;28;20026;-70
2021/01/14 02:04:22;;;;;;;7.85;1.73;;;4.50;99.90;;;;;;4142750;28;20042;-69
2021/01/14 02:06:23;;;;;;;6.68;1.80;;;4.40;99.90;;;;;;4147320;28;20052;-70
2021/01/14 02:08:33;;;;;;;8.30;1.55;;;4.40;99.90;;;;;;4146633;28;20547;-70
2021/01/14 02:10:40;;;;;;;7.95;1.90;;;4.40;99.90;;;;;;4142311;28;20502;-70
2021/01/14 02:12:51;;;;;;;11.02;1.83;;;4.40;99.90;;;;;;4142225;28;20037;-69
2021/01/14 02:14:56;;;;;;;5.45;1.48;;;4.40;99.90;;;;;;4145386;28;20717;-70
2021/01/14 02:16:57;;;;;;;8.70;1.67;;;4.40;99.90;;;;;;4146509;28;20116;-70
2021/01/14 02:18:59;;;;;;;8.15;1.70;;;4.40;99.90;;;;;;4141496;28;20037;-70
2021/01/14 02:21:03;;;;;;;6.60;1.50;;;4.40;99.90;;;;;;4145244;28;20040;-70
2021/01/14 02:23:16;;;;;;;7.32;1.80;;;4.40;99.90;;;;;;4144382;28;20034;-70
2021/01/14 02:25:23;;;;;;;;;;;4.40;99.90;;;;;;4146578;28;20034;-69
2021/01/14 02:27:28;;;;;;;7.30;1.70;;;4.40;99.90;;;;;;4149111;28;19928;-70
2021/01/14 02:29:29;;;;;;;9.55;1.85;;;4.30;99.90;;;;;;4148830;28;20520;-70
2021/01/14 02:31:30;;;;;;;7.22;1.77;;;4.30;99.90;;;;;;4140014;28;20054;-70
2021/01/14 02:33:31;;;;;;;3.17;1.40;;;4.30;99.90;;;;;;4148086;28;20064;-69
2021/01/14 02:35:32;;;;;;;7.35;1.63;;;4.30;99.90;;;;;;4143558;28;20025;-69
2021/01/14 02:37:33;;;;;;;5.45;1.40;;;4.30;99.90;;;;;;4147674;28;20084;-70
2021/01/14 02:39:36;;;;;;;6.05;1.80;;;4.20;99.90;;;;;;4148896;28;20145;-70
2021/01/14 02:41:37;;;;;;;5.38;1.50;;;4.20;99.90;;;;;;4146607;28;20548;-70
2021/01/14 02:43:38;;;;;;;9.95;2.40;;;4.20;99.90;;;;;;4149278;28;20108;-70
2021/01/14 02:45:38;;;;;;;8.38;1.88;;;4.20;99.90;;;;;;4147473;28;20036;-70
2021/01/14 02:47:42;;;;;;;9.40;1.70;;;4.20;99.90;;;;;;4146250;28;20060;-70
2021/01/14 02:49:51;;;;;;;6.88;2.00;;;4.10;99.90;;;;;;4145210;28;20072;-70
2021/01/14 02:51:56;;;;;;;8.75;1.67;;;4.10;99.90;;;;;;4141507;28;20049;-70
2021/01/14 02:53:58;;;;;;;9.10;1.90;;;4.10;99.90;;;;;;4143641;28;21396;-69
2021/01/14 02:56:00;;;;;;;12.87;2.27;;;4.10;99.90;;;;;;4146573;28;20041;-70
2021/01/14 02:58:01;;;;;;;7.32;1.63;;;4.10;99.90;;;;;;4148047;28;20283;-70
2021/01/14 03:00:03;;;;;;;11.52;2.42;;;4.00;99.90;;;;;;4148775;28;20465;-70
2021/01/14 03:02:04;;;;;;;8.95;1.90;;;4.00;99.90;;;;;;4146798;28;20033;-69
2021/01/14 03:04:05;;;;;;;8.50;2.10;;;4.00;99.90;;;;;;4147068;28;20436;-70
2021/01/14 03:06:05;;;;;;;9.93;1.90;;;4.00;99.90;;;;;;4144520;28;20060;-70
2021/01/14 03:08:06;;;;;;;8.75;1.90;;;4.00;99.90;;;;;;4143593;28;20038;-69
2021/01/14 03:10:07;;;;;;;9.48;2.65;;;4.00;99.90;;;;;;4144199;28;20042;-70
2021/01/14 03:12:08;;;;;;;8.80;2.03;;;4.00;99.90;;;;;;4143524;28;20029;-70
2021/01/14 03:14:08;;;;;;;9.35;2.00;;;4.00;99.90;;;;;;4146693;28;20040;-70
2021/01/14 03:16:09;;;;;;;7.47;2.03;;;4.00;99.90;;;;;;4141575;28;20041;-70
2021/01/14 03:18:11;;;;;;;8.52;1.67;;;4.10;99.90;;;;;;4144155;28;20105;-70
2021/01/14 03:20:12;;;;;;;10.05;1.90;;;4.10;99.90;;;;;;4144585;28;20099;-70
2021/01/14 03:22:14;;;;;;;6.60;1.67;;;4.00;99.90;;;;;;4143909;28;20612;-70
2021/01/14 03:24:14;;;;;;;4.57;1.15;;;4.10;99.90;;;;;;4133716;28;20091;-70
2021/01/14 03:26:16;;;;;;;6.68;1.73;;;4.10;99.90;;;;;;4150614;28;20056;-70
2021/01/14 03:28:16;;;;;;;8.00;1.50;;;4.10;99.90;;;;;;4146874;28;20379;-70
2021/01/14 03:30:19;;;;;;;7.75;1.30;;;4.10;99.90;;;;;;4143016;28;20091;-69
2021/01/14 03:32:20;;;;;;;8.25;1.70;;;4.10;99.90;;;;;;4149033;28;20160;-70
2021/01/14 03:34:24;;;;;;;8.70;1.70;;;4.10;99.90;;;;;;4150634;28;20050;-70
2021/01/14 03:36:24;;;;;;;5.95;1.58;;;4.10;99.90;;;;;;4149844;28;20599;-70
2021/01/14 03:38:25;;;;;;;7.78;1.58;;;4.10;99.90;;;;;;4125516;28;20052;-70
2021/01/14 03:40:26;;;;;;;6.60;1.65;;;4.10;99.90;;;;;;4147323;28;20046;-70
2021/01/14 03:42:26;;;;;;;8.60;1.13;;;4.10;99.90;;;;;;4147358;28;20188;-70
2021/01/14 03:44:27;;;;;;;8.95;2.30;;;4.10;99.90;;;;;;4141779;28;20041;-70
2021/01/14 03:46:28;;;;;;;10.25;1.63;;;4.10;99.90;;;;;;4141725;28;20062;-70
2021/01/14 03:48:28;;;;;;;8.95;2.17;;;4.10;99.90;;;;;;4142577;28;20041;-70
2021/01/14 03:50:29;;;;;;;7.95;1.83;;;4.10;99.90;;;;;;4142578;28;20034;-70
2021/01/14 03:52:30;;;;;;;7.60;1.50;;;4.00;99.90;;;;;;4144522;28;20072;-70
2021/01/14 03:54:30;;;;;;;4.95;1.17;;;4.00;99.90;;;;;;4142758;28;20054;-70
2021/01/14 03:56:41;;;;;;;10.60;1.85;;;4.00;99.90;;;;;;4142351;28;20071;-70
2021/01/14 03:58:42;;;;;;;8.07;1.98;;;4.00;99.90;;;;;;4149880;28;20029;-70
2021/01/14 04:00:44;;;;;;;;;;;4.00;99.90;;;;;;4151144;28;20042;-70
2021/01/14 04:02:45;;;;;;;8.13;2.00;;;4.00;99.90;;;;;;4149559;28;20361;-70
2021/01/14 04:04:46;;;;;;;5.82;1.55;;;4.00;99.90;;;;;;4147525;28;20127;-70
2021/01/14 04:06:47;;;;;;;9.38;2.15;;;4.00;99.90;;;;;;4144772;28;20061;-70
2021/01/14 04:08:48;;;;;;;5.88;1.40;;;4.00;99.90;;;;;;4146154;28;20117;-70
2021/01/14 04:10:48;;;;;;;7.13;1.45;;;4.00;99.90;;;;;;4149950;28;20030;-70
2021/01/14 04:12:49;;;;;;;5.70;1.20;;;4.00;99.90;;;;;;4135543;28;20029;-70
2021/01/14 04:14:50;;;;;;;5.70;1.27;;;4.00;99.90;;;;;;4151685;28;20037;-70
2021/01/14 04:16:51;;;;;;;5.50;1.48;;;4.00;99.90;;;;;;4146438;28;20589;-70
2021/01/14 04:18:52;;;;;;;4.13;1.05;;;4.00;99.90;;;;;;4145825;28;20075;-69
2021/01/14 04:20:53;;;;;;;3.53;1.10;;;4.00;99.90;;;;;;4145060;28;20164;-70
2021/01/14 04:22:54;;;;;;;4.60;1.00;;;4.00;99.90;;;;;;4146153;28;20037;-70
2021/01/14 04:25:02;;;;;;;2.53;1.17;;;4.00;99.90;;;;;;4156290;28;20042;-70
2021/01/14 04:27:05;;;;;;;3.05;1.30;;;4.00;99.90;;;;;;4145467;28;20397;-70
2021/01/14 04:29:06;;;;;;;5.03;1.20;;;4.00;99.90;;;;;;4150218;28;20505;-70
2021/01/14 04:31:11;;;;;;;2.95;1.05;;;4.00;99.90;;;;;;4147344;28;20381;-70
2021/01/14 04:33:11;;;;;;;4.22;1.30;;;4.00;99.90;;;;;;4149815;28;20038;-70
2021/01/14 04:35:12;;;;;;;4.15;1.02;;;4.00;99.90;;;;;;4125707;28;20034;-70
2021/01/14 04:37:13;;;;;;;3.60;1.20;;;4.00;99.90;;;;;;4148131;28;20926;-70
2021/01/14 04:39:13;;;;;;;4.60;1.35;;;4.00;99.90;;;;;;4147705;28;20042;-70
2021/01/14 04:41:17;;;;;;;5.85;1.08;;;4.00;99.90;;;;;;4149732;28;20043;-70
2021/01/14 04:43:18;;;;;;;5.15;1.38;;;4.00;99.90;;;;;;4148298;28;20062;-70
2021/01/14 04:45:20;;;;;;;3.03;1.08;;;4.00;99.90;;;;;;4151812;28;20037;-70
2021/01/14 04:47:26;;;;;;;3.55;1.20;;;4.00;99.90;;;;;;4148831;28;20520;-70
2021/01/14 04:49:27;;;;;;;4.80;1.23;;;3.90;99.90;;;;;;4145542;28;20042;-70
2021/01/14 04:51:29;;;;;;;7.75;1.52;;;3.90;99.90;;;;;;4149173;28;20076;-70
2021/01/14 04:53:32;;;;;;;5.90;1.45;;;3.90;99.90;;;;;;4151108;28;20056;-70
2021/01/14 04:55:48;;;;;;;3.92;1.15;;;3.90;99.90;;;;;;4147969;28;20045;-70
2021/01/14 04:57:51;;;;;;;4.78;1.40;;;3.90;99.90;;;;;;4143183;28;20039;-70
2021/01/14 04:59:53;;;;;;;9.27;1.80;;;3.90;99.90;;;;;;4149308;28;20389;-70
2021/01/14 05:01:57;;;;;;;5.33;1.30;;;3.90;99.90;;;;;;4143030;28;20049;-70
2021/01/14 05:04:02;;;;;;;3.60;1.33;;;3.90;99.90;;;;;;4151294;28;20261;-70
2021/01/14 05:06:03;;;;;;;3.35;1.30;;;3.90;99.90;;;;;;4149067;28;20486;-70
2021/01/14 05:08:06;;;;;;;1.40;0.82;;;3.90;99.90;;;;;;4145643;28;21356;-70
2021/01/14 05:10:07;;;;;;;2.38;1.13;;;3.90;99.90;;;;;;4150528;28;20038;-70
2021/01/14 05:12:09;;;;;;;6.95;1.42;;;3.90;99.90;;;;;;4145593;28;20523;-70
2021/01/14 05:14:10;;;;;;;4.20;1.17;;;3.90;99.90;;;;;;4154152;28;20040;-70
2021/01/14 05:16:12;;;;;;;5.03;1.33;;;3.90;99.90;;;;;;4151446;28;20042;-70
2021/01/14 05:18:13;;;;;;;3.45;1.00;;;3.90;99.90;;;;;;4148819;28;20029;-70
2021/01/14 05:20:13;;;;;;;6.20;1.25;;;3.90;99.90;;;;;;4143404;28;20141;-70
2021/01/14 05:22:14;;;;;;;4.05;1.00;;;3.90;99.90;;;;;;4143371;28;20092;-70
2021/01/14 05:24:16;;;;;;;7.28;1.08;;;3.90;99.90;;;;;;4153244;28;20054;-70
2021/01/14 05:26:31;;;;;;;4.80;1.47;;;3.90;99.90;;;;;;4147662;28;20049;-70
2021/01/14 05:28:32;;;;;;;4.25;1.25;;;3.80;99.90;;;;;;4144181;28;20038;-70
2021/01/14 05:30:32;;;;;;;7.43;1.50;;;3.90;99.90;;;;;;4148913;28;20037;-70
2021/01/14 05:32:41;;;;;;;4.60;1.10;;;3.80;99.90;;;;;;4147544;28;20029;-70
2021/01/14 05:34:48;;;;;;;4.97;1.27;;;3.80;99.90;;;;;;4144996;28;20050;-70
2021/01/14 05:37:03;;;;;;;2.63;0.80;;;3.80;99.90;;;;;;4154153;28;20516;-70
2021/01/14 05:39:04;;;;;;;5.47;1.50;;;3.80;99.90;;;;;;4146989;28;20025;-70
2021/01/14 05:41:11;;;;;;;5.07;1.70;;;3.80;99.90;;;;;;4145626;28;20117;-70
2021/01/14 05:43:11;;;;;;;7.80;1.60;;;3.80;99.90;;;;;;4144042;28;20502;-70
2021/01/14 05:45:22;;;;;;;4.15;1.33;;;3.80;99.90;;;;;;4146198;28;20049;-70
2021/01/14 05:47:27;;;;;;;2.40;0.75;;;3.80;99.90;;;;;;4142545;28;20052;-70
2021/01/14 05:49:28;;;;;;;6.43;1.73;;;3.80;99.90;;;;;;4147380;28;20045;-70
2021/01/14 05:51:30;;;;;;;4.45;1.30;;;3.80;99.90;;;;;;4151699;28;20050;-70
2021/01/14 05:53:36;;;;;;;5.25;1.25;;;3.80;99.90;;;;;;4142674;28;20038;-70
2021/01/14 05:55:37;;;;;;;3.75;1.33;;;3.80;99.90;;;;;;4147339;28;20596;-71
2021/01/14 05:57:40;;;;;;;5.82;1.50;;;3.80;99.90;;;;;;4149875;28;20045;-71
2021/01/14 05:59:40;;;;;;;;;;;3.70;99.90;;;;;;4152455;28;20044;-71
2021/01/14 06:01:57;;;;;;;3.25;1.20;;;3.70;99.90;;;;;;4146910;28;19913;-71
2021/01/14 06:04:15;;;;;;;3.88;1.25;;;3.70;99.90;;;;;;4148737;28;20053;-71
2021/01/14 06:06:16;;;;;;;4.75;1.42;;;3.70;99.90;;;;;;4148518;28;20159;-71
2021/01/14 06:08:27;;;;;;;8.60;1.30;;;3.60;99.90;;;;;;4138436;28;20117;-71
2021/01/14 06:10:33;;;;;;;7.03;1.17;;;3.60;99.90;;;;;;4134748;28;20049;-72
2021/01/14 06:12:34;;;;;;;3.58;1.13;;;3.60;99.90;;;;;;4128471;28;20062;-72
2021/01/14 06:14:34;;;;;;;4.57;1.05;;;3.60;99.90;;;;;;4132053;28;20037;-71
2021/01/14 06:16:49;;;;;;;4.20;1.00;;;3.60;99.90;;;;;;4124315;28;20034;-73
2021/01/14 06:19:09;;;;;;;4.15;1.30;;;3.60;99.90;;;;;;4129700;28;20650;-73
2021/01/14 06:21:09;;;;;;;5.05;1.30;;;3.60;99.90;;;;;;4122999;28;20030;-72
2021/01/14 06:23:10;;;;;;;7.00;1.30;;;3.60;99.90;;;;;;4120988;28;20374;-74
2021/01/14 06:25:12;;;;;;;5.75;1.48;;;3.60;99.90;;;;;;4132401;28;20050;-73
2021/01/14 06:27:13;;;;;;;5.07;1.13;;;3.60;99.90;;;;;;4126692;28;20045;-73
2021/01/14 06:29:17;;;;;;;3.22;1.15;;;3.60;99.90;;;;;;4132448;28;20081;-74
2021/01/14 06:31:25;;;;;;;13.75;1.90;;;3.60;99.90;;;;;;4132355;28;20117;-74
2021/01/14 06:33:27;;;;;;;5.03;1.10;;;3.60;99.90;;;;;;4134401;28;20042;-73
2021/01/14 06:35:28;;;;;;;5.13;1.60;;;3.60;99.90;;;;;;4128185;28;20065;-73
2021/01/14 06:37:33;;;;;;;5.72;1.48;;;3.60;99.90;;;;;;4117009;28;20160;-73
2021/01/14 06:39:56;;;;;;;8.50;1.23;;;3.60;99.90;;;;;;4103315;28;20049;-74
2021/01/14 06:42:16;;;;;;;6.70;1.38;;;3.60;99.90;;;;;;4134122;28;20144;-74
2021/01/14 06:44:25;;;;;;;2.58;1.15;;;3.50;99.90;;;;;;4136033;28;20386;-74
2021/01/14 06:46:30;;;;;;;8.40;1.70;;;3.60;99.90;;;;;;4129171;28;20038;-75
2021/01/14 06:48:36;;;;;;;4.35;1.35;;;3.60;99.90;;;;;;4132311;28;20053;-74
2021/01/14 06:50:48;;;;;;;2.88;1.13;;;3.60;99.90;;;;;;4109546;28;20030;-74
2021/01/14 06:53:00;;;;;;;6.72;1.83;;;3.50;99.90;;;;;;4132740;28;20031;-74
2021/01/14 06:55:01;;;;;;;7.03;1.48;;;3.60;99.90;;;;;;4135813;28;20954;-74
2021/01/14 06:57:15;;;;;;;4.20;1.00;;;3.60;99.90;;;;;;4130823;28;20118;-75
2021/01/14 06:59:16;;;;;;;3.92;1.00;;;3.60;99.90;;;;;;4130521;28;20026;-74
2021/01/14 07:01:18;;;;;;;2.92;1.00;;;3.60;99.90;;;;;;4136210;28;20053;-70
2021/01/14 07:03:22;;;;;;;4.05;1.15;;;3.60;99.90;;;;;;4133150;28;20058;-70
2021/01/14 07:05:32;;;;;;;2.88;1.00;;;3.60;99.90;;;;;;4127901;28;20030;-71
2021/01/14 07:07:51;;;;;;;2.55;0.95;;;3.60;99.90;;;;;;4127590;28;20081;-71
2021/01/14 07:10:15;;;;;;;3.75;1.55;;;3.70;99.90;;;;;;4131432;28;20429;-71
2021/01/14 07:12:18;;;;;;;5.72;1.25;;;3.70;99.90;;;;;;4126697;28;20141;-71
2021/01/14 07:14:23;;;;;;;;;;;3.70;99.90;;;;;;4134739;28;20374;-71
2021/01/14 07:16:27;;;;;;;2.85;0.98;;;3.70;99.90;;;;;;4129803;28;19945;-71
2021/01/14 07:18:31;;;;;;;7.05;1.60;;;3.70;99.90;;;;;;4130611;28;20522;-71
2021/01/14 07:20:32;;;;;;;4.80;1.80;;;3.70;99.90;;;;;;4132100;28;20124;-71
2021/01/14 07:22:52;;;;;;;5.80;1.92;;;3.60;99.90;;;;;;4144461;28;20077;-71
2021/01/14 07:24:55;;;;;;;4.60;1.40;;;3.60;99.90;;;;;;4148579;28;20032;-70
2021/01/14 07:26:57;;;;;;;4.40;1.60;;;3.70;99.90;;;;;;4147761;28;20041;-71
2021/01/14 07:29:02;;;;;;;5.37;1.80;;;3.60;99.90;;;;;;4152283;28;20046;-71
2021/01/14 07:31:20;;;;;;;3.70;1.40;;;3.70;99.90;;;;;;4142302;28;20276;-72
2021/01/14 07:33:27;;;;;;;5.20;1.70;;;3.70;99.90;;;;;;4145830;28;20120;-72
2021/01/14 07:35:44;;;;;;;4.00;1.55;;;3.70;99.90;;;;;;4143844;28;20078;-72
2021/01/14 07:37:52;;;;;;;6.75;1.70;;;3.60;99.90;;;;;;4141994;28;20068;-71
2021/01/14 07:39:57;;;;;;;3.92;1.70;;;3.60;99.90;;;;;;4145196;28;20063;-72
2021/01/14 07:41:59;;;;;;;4.00;1.40;;;3.60;99.90;;;;;;4145653;28;20030;-72
2021/01/14 07:43:59;;;;;;;5.03;1.65;;;3.60;99.90;;;;;;4146516;28;20034;-72
2021/01/14 07:46:14;;;;;;;6.43;1.85;;;3.60;99.90;;;;;;4141227;28;20030;-72
2021/01/14 07:48:24;;;;;;;4.43;1.70;;;3.60;99.90;;;;;;4145544;28;20049;-71
2021/01/14 07:50:26;;;;;;;5.07;1.85;;;3.50;99.90;;;;;;4143192;28;20124;-72
2021/01/14 07:52:35;;;;;;;10.32;2.03;;;3.50;99.90;;;;;;4150393;28;20030;-71
2021/01/14 07:54:56;;;;;;;6.32;1.77;;;3.50;99.90;;;;;;4147807;28;20103;-72
2021/01/14 07:57:01;;;;;;;6.70;1.85;;;3.50;99.90;;;;;;4148496;28;20612;-71
2021/01/14 07:59:03;;;;;;;4.45;1.75;;;3.50;99.90;;;;;;4144608;28;20030;-71
2021/01/14 08:01:09;;;;;;;4.07;1.60;;;3.50;99.90;;;;;;4154607;28;20068;-72
2021/01/14 08:03:14;;;;;;;4.35;1.27;;;3.50;99.90;;;;;;4150426;28;20587;-71
2021/01/14 08:05:40;;;;;;;4.43;1.70;;;3.50;99.90;;;;;;4148393;28;20398;-72
2021/01/14 08:07:41;;;;;;;5.65;1.90;;;3.50;99.90;;;;;;4144078;28;20041;-71
2021/01/14 08:09:42;;;;;;;5.32;2.13;;;3.60;99.90;;;;;;4150012;28;20037;-71
2021/01/14 08:11:42;;;;;;;6.57;1.60;;;3.50;99.90;;;;;;4148014;28;20030;-72
2021/01/14 08:14:04;;;;;;;3.97;1.60;;;3.60;99.90;;;;;;4148092;28;20061;-71
2021/01/14 08:16:05;;;;;;;4.43;1.50;;;3.50;99.90;;;;;;4154916;28;20072;-71
2021/01/14 08:18:12;;;;;;;2.88;1.40;;;3.50;99.90;;;;;;4147362;28;20639;-72
2021/01/14 08:20:16;;;;;;;6.40;1.42;;;3.50;99.90;;;;;;4150014;28;20040;-71
2021/01/14 08:22:17;;;;;;;5.03;1.73;;;3.60;99.90;;;;;;4148080;28;20113;-71
2021/01/14 08:24:38;;;;;;;5.57;1.95;;;3.60;99.90;;;;;;4148618;28;20034;-71
2021/01/14 08:27:10;;;;;;;7.68;2.72;;;3.60;99.90;;;;;;4144336;28;20113;-72
2021/01/14 08:29:50;;;;;;;6.45;2.88;;;3.50;99.90;;;;;;4147994;28;20033;-71
2021/01/14 08:31:51;;;;;;;7.57;3.00;;;3.50;99.90;;;;;;4145940;28;20616;-72
2021/01/14 08:33:54;;;;;;;7.32;3.25;;;3.50;99.90;;;;;;4148751;28;20091;-72
2021/01/14 08:36:03;;;;;;;7.30;3.33;;;3.50;99.90;;;;;;4152146;28;20030;-72
2021/01/14 08:38:07;;;;;;;7.20;3.45;;;3.50;99.90;;;;;;4145717;28;20038;-72
2021/01/14 08:40:14;;;;;;;11.90;3.80;;;3.60;99.90;;;;;;4147502;28;20092;-71
2021/01/14 08:42:15;;;;;;;7.78;3.45;;;3.60;99.90;;;;;;4142700;28;20030;-72
2021/01/14 08:44:17;;;;;;;5.97;2.63;;;3.60;99.90;;;;;;4150051;28;20531;-71
2021/01/14 08:46:38;;;;;;;8.98;2.78;;;3.60;99.90;;;;;;4145925;28;20037;-72
2021/01/14 08:48:39;;;;;;;7.40;2.45;;;3.60;99.90;;;;;;4153539;28;20067;-71
2021/01/14 08:50:46;;;;;;;5.32;1.77;;;3.50;99.90;;;;;;4149465;28;20041;-71
2021/01/14 08:52:53;;;;;;;2.58;1.55;;;3.40;99.90;;;;;;4140783;28;20041;-71
2021/01/14 08:54:56;;;;;;;6.05;1.67;;;3.50;99.90;;;;;;4147401;28;20099;-72
2021/01/14 08:57:04;;;;;;;7.68;1.98;;;3.50;99.90;;;;;;4145875;28;20061;-71
2021/01/14 08:59:16;;;;;;;6.95;1.85;;;3.60;99.90;;;;;;4128853;28;20038;-71
2021/01/14 09:01:20;;;;;;;6.55;1.73;;;3.50;99.90;;;;;;4142567;28;20042;-71
2021/01/14 09:03:21;;;;;;;7.13;2.10;;;3.60;99.90;;;;;;4151741;28;20033;-71
2021/01/14 09:05:22;;;;;;;3.35;1.67;;;3.60;99.90;;;;;;4151954;28;20557;-71
2021/01/14 09:07:22;;;;;;;5.28;1.52;;;3.60;99.90;;;;;;4144455;28;20032;-71
2021/01/14 09:09:23;;;;;;;5.95;1.63;;;3.60;99.90;;;;;;4148725;28;20095;-71
2021/01/14 09:11:25;;;;;;;2.70;1.33;;;3.60;99.90;;;;;;4141763;28;20466;-71
2021/01/14 09:13:28;;;;;;;2.70;1.52;;;3.60;99.90;;;;;;4142615;28;20441;-71
2021/01/14 09:15:29;;;;;;;6.28;1.77;;;3.60;99.90;;;;;;4140967;28;20103;-71
2021/01/14 09:17:33;;;;;;;3.97;1.70;;;3.70;99.90;;;;;;4145748;28;20030;-71
2021/01/14 09:19:33;;;;;;;4.57;1.90;;;3.60;99.90;;;;;;4142456;28;20437;-72
2021/01/14 09:21:34;;;;;;;8.07;1.88;;;3.70;99.90;;;;;;4147759;28;20033;-71
2021/01/14 09:23:37;;;;;;;4.78;1.75;;;3.60;99.90;;;;;;4146009;28;20439;-71
2021/01/14 09:25:38;;;;;;;5.72;1.85;;;3.60;99.90;;;;;;4144140;28;20038;-71
2021/01/14 09:27:40;;;;;;;9.65;2.15;;;3.70;99.90;;;;;;4148850;28;20033;-71
2021/01/14 09:29:41;;;;;;;6.07;1.83;;;3.70;99.90;;;;;;4145935;28;20029;-72
2021/01/14 09:31:42;;;;;;;3.72;1.73;;;3.80;99.90;;;;;;4145412;28;20498;-71
2021/01/14 09:33:46;;;;;;;5.07;1.92;;;3.80;99.90;;;;;;4151324;28;20033;-71
2021/01/14 09:36:19;;;;;;;6.07;2.28;;;3.80;99.90;;;;;;4143067;28;20101;-71
2021/01/14 09:38:21;;;;;;;5.97;2.17;;;3.80;99.90;;;;;;4126579;28;20033;-71
2021/01/14 09:40:22;;;;;;;5.70;1.95;;;3.80;99.90;;;;;;4131060;28;20043;-72
2021/01/14 09:42:26;;;;;;;3.83;1.88;;;3.80;99.90;;;;;;4123813;28;22675;-72
2021/01/14 09:44:30;;;;;;;9.93;2.55;;;3.80;99.90;;;;;;4124027;28;20057;-72
2021/01/14 09:46:34;;;;;;;10.23;2.30;;;3.70;99.90;;;;;;4135409;28;20479;-72
2021/01/14 09:48:36;;;;;;;7.78;2.10;;;3.60;99.90;;;;;;4129706;28;20030;-71
2021/01/14 09:50:40;;;;;;;5.70;1.95;;;3.50;99.90;;;;;;4125975;28;20026;-72
2021/01/14 09:52:40;;;;;;;5.38;2.28;;;3.50;99.90;;;;;;4127253;28;20029;-71
2021/01/14 09:54:42;;;;;;;6.47;2.17;;;3.50;99.90;;;;;;4133501;28;20479;-71
2021/01/14 09:56:47;;;;;;;6.63;1.98;;;3.50;99.90;;;;;;4125791;28;20049;-71
2021/01/14 09:58:53;;;;;;;7.57;2.65;;;3.50;99.90;;;;;;4131684;28;20022;-72
2021/01/14 10:00:56;;;;;;;6.55;2.65;;;3.40;99.90;;;;;;4128451;28;20042;-71
2021/01/14 10:03:07;;;;;;;7.25;2.72;;;3.20;99.90;;;;;;4110542;28;20055;-72
2021/01/14 10:05:13;;;;;;;6.15;2.70;;;3.20;99.90;;;;;;4133673;28;20038;-71
2021/01/14 10:07:21;;;;;;;10.30;3.10;;;3.10;99.90;;;;;;4129820;28;20041;-71
2021/01/14 10:09:22;;;;;;;5.45;2.35;;;3.00;99.90;;;;;;4128402;28;20038;-71
2021/01/14 10:11:25;;;;;;;10.10;2.78;;;2.90;99.90;;;;;;4129367;28;20640;-71
2021/01/14 10:13:25;;;;;;;7.75;3.40;;;2.90;99.90;;;;;;4129445;28;20046;-71
2021/01/14 10:15:26;;;;;;;7.57;3.15;;;2.90;99.90;;;;;;4128502;28;20033;-72
2021/01/14 10:17:36;;;;;;;6.10;3.30;;;2.90;99.90;;;;;;4132458;28;20386;-71
2021/01/14 10:19:43;;;;;;;12.05;3.05;;;3.00;99.90;;;;;;4124597;28;20750;-71
2021/01/14 10:21:44;;;;;;;7.93;3.40;;;3.00;99.90;;;;;;4133160;28;20409;-71
2021/01/14 10:23:45;;;;;;;8.93;3.65;;;3.10;99.90;;;;;;4126191;28;20664;-71
2021/01/14 10:25:48;;;;;;;9.15;3.72;;;3.30;99.90;;;;;;4125251;28;20031;-72
2021/01/14 10:28:10;;;;;;;6.20;3.35;;;3.30;99.90;;;;;;4127260;28;20451;-71
2021/01/14 10:30:22;;;;;;;7.88;3.78;;;3.30;99.90;;;;;;4112192;28;20039;-71
2021/01/14 10:32:24;;;;;;;11.77;4.03;;;3.40;99.90;;;;;;4132311;28;20038;-71
2021/01/14 10:34:46;;;;;;;6.82;3.83;;;3.50;99.90;;;;;;4133451;28;20049;-72
2021/01/14 10:36:49;;;;;;;5.75;3.60;;;3.50;99.90;;;;;;4129890;28;20040;-72
2021/01/14 10:38:50;;;;;;;7.93;3.80;;;3.50;99.90;;;;;;4128827;28;20353;-71
2021/01/14 10:40:51;;;;;;;11.27;4.22;;;3.60;99.90;;;;;;4130940;28;20038;-72
2021/01/14 10:42:52;;;;;;;8.90;3.83;;;3.60;99.90;;;;;;4132989;28;20045;-72
2021/01/14 10:45:00;;;;;;;8.52;4.40;;;3.60;99.90;;;;;;4125839;28;20066;-71
2021/01/14 10:47:00;;;;;;;6.25;3.78;;;3.70;99.90;;;;;;4131273;28;20038;-71
2021/01/14 10:49:12;;;;;;;6.25;3.47;;;3.70;99.90;;;;;;4131845;28;20065;-71
2021/01/14 10:51:12;;;;;;;7.85;4.70;;;3.80;99.90;;;;;;4128747;28;20161;-71
2021/01/14 10:53:27;;;;;;;9.27;4.68;;;3.80;99.90;;;;;;4129239;28;20088;-71
2021/01/14 10:55:28;;;;;;;7.15;4.10;;;3.80;99.90;;;;;;4136025;28;20064;-72
2021/01/14 10:57:48;;;;;;;10.60;4.53;;;3.80;99.90;;;;;;4129089;28;20049;-72